Portada
METAR-TAF:

METAR-TAF

Aeroports :

Abha, Aràbia Saudita

latitud: 18-14N, longitud: 042-39E, altitud: 2090 m

Observació

L'informe es va fer fa 47 minuts, a les 22:00 UTC
Vent calma
Temperatura 16°C
Humitat 63%
Pressió 1023 hPa
Visibilitat 10 km o més
sense núvols per sota de 1500 mi sense presència de cumulonimbus.

METAR: OEAB 012200Z 00000KT CAVOK 16/09 Q1023 NOSIG

Hora: 01:47 (22:47 UTC)

Pronòstic

L'informe es va fer fa 11 hores i 47 minuts, a les 11:00 UTC
Pronòstic vàlid del 01 a les 12 UTC al 02 a les 18 UTC
Vent 15 kt del Oest/Sud-Oest
Visibilitat 10 km o més
Núvols disperses a una alçada de 2000 ft
Temporalment
l' 01 a les 12 UTC al 01 a les 18 UTC
Visibilitat: 6000 m
Cel ennuvolat a una alçada de 2000 ft
Escasses núvols a una alçada de 2500 ft, Cumulonimbus.
tempesta, pluja
Evolucionant progressivament
l' 01 a les 16 UTC al 01 a les 18 UTC
Vent 8 kt del Nord/Nord-Est

TAF: OEAB 011100Z 0112/0218 24015KT 9999 SCT020 TEMPO 0112/0118 6000 TSRA BKN020 FEW025CB BECMG 0116/0118 03008KT

Observacions i pronòstics meteorològics de més de 4000 aeroports (METAR i TAF).

Les estacions disponibles són els punts grocs i vermells al mapa.

Posi el ratolí al punt desitjat per veure el nom de l'estació.

Feu clic per veure les observacions i els pronòstics meteorològics.

Per canviar el mapa: feu clic els botons verds amb una creu de color negre per apropar; al botó verd amb un guió per allunyar la imatge; o en les fletxes verdes per a mapes adjacents.


METAR-TAF: